createdAt,value
2019-03-03T00:00:21.921Z,94.75
2019-03-03T00:02:50.583Z,101.00
2019-03-03T00:05:19.064Z,96.02
2019-03-03T00:07:47.560Z,99.32
2019-03-03T00:10:16.068Z,87.45
2019-03-03T00:12:44.551Z,98.35
2019-03-03T00:15:13.205Z,92.20
2019-03-03T00:17:41.968Z,92.70
2019-03-03T00:20:12.291Z,84.00
2019-03-03T00:22:40.764Z,95.40
2019-03-03T00:25:10.727Z,101.80
2019-03-03T00:27:39.290Z,90.70
2019-03-03T00:30:14.035Z,96.63
2019-03-03T00:32:42.888Z,88.45
2019-03-03T00:35:11.379Z,85.65
2019-03-03T00:37:57.506Z,81.53
2019-03-03T00:40:30.302Z,85.30
2019-03-03T00:43:00.431Z,93.12
2019-03-03T00:45:48.575Z,83.80
2019-03-03T00:48:21.337Z,75.32
2019-03-03T00:50:51.517Z,75.05
2019-03-03T00:53:39.415Z,90.57
2019-03-03T00:56:25.406Z,87.15
2019-03-03T00:59:10.315Z,84.70
2019-03-03T01:01:52.321Z,84.35
2019-03-03T01:04:28.121Z,75.05
2019-03-03T01:06:58.295Z,89.17
2019-03-03T01:09:45.137Z,86.02
2019-03-03T01:12:15.289Z,80.83
2019-03-03T01:14:45.394Z,79.32
2019-03-03T01:17:18.406Z,82.47
2019-03-03T01:19:57.229Z,80.63
2019-03-03T01:22:27.393Z,82.08
2019-03-03T01:24:58.587Z,81.78
2019-03-03T01:27:27.140Z,81.92
2019-03-03T01:29:55.615Z,86.08
2019-03-03T01:32:24.151Z,83.10
2019-03-03T01:34:52.610Z,87.02
2019-03-03T01:37:21.090Z,91.17
2019-03-03T01:39:49.615Z,76.00
2019-03-03T01:42:18.122Z,88.45
2019-03-03T01:44:46.670Z,85.10
2019-03-03T01:47:15.122Z,83.65
2019-03-03T01:49:43.605Z,82.95
2019-03-03T01:52:12.111Z,78.78
2019-03-03T01:54:40.658Z,77.60
2019-03-03T01:57:09.162Z,72.90
2019-03-03T01:59:37.627Z,78.57
2019-03-03T02:02:06.128Z,80.60
2019-03-03T02:04:34.605Z,74.32
2019-03-03T02:07:03.120Z,73.60
2019-03-03T02:09:32.164Z,74.40
2019-03-03T02:12:00.636Z,74.55
2019-03-03T02:14:29.135Z,70.80
2019-03-03T02:16:57.626Z,67.60
2019-03-03T02:19:26.122Z,69.53
2019-03-03T02:21:54.610Z,66.50
2019-03-03T02:24:23.128Z,70.57
2019-03-03T02:26:51.609Z,68.75
2019-03-03T02:29:20.093Z,68.57
2019-03-03T02:31:48.588Z,69.80
2019-03-03T02:34:17.086Z,71.97
2019-03-03T02:36:45.632Z,77.10
2019-03-03T02:39:15.680Z,87.20
2019-03-03T02:41:44.154Z,81.02
2019-03-03T02:44:12.925Z,80.67
2019-03-03T02:46:41.470Z,79.60
2019-03-03T02:49:09.961Z,93.33
2019-03-03T02:51:38.568Z,84.42
2019-03-03T02:54:07.079Z,104.83
2019-03-03T02:56:35.630Z,90.87
2019-03-03T02:59:04.362Z,99.83
2019-03-03T03:01:37.232Z,94.32
2019-03-03T03:04:05.820Z,105.30
2019-03-03T03:06:35.968Z,106.22
2019-03-03T03:09:12.882Z,111.57
2019-03-03T03:11:53.515Z,116.22
2019-03-03T03:14:32.646Z,100.65
2019-03-03T03:17:02.970Z,113.05
2019-03-03T03:19:38.769Z,114.08
2019-03-03T03:22:11.698Z,120.82
2019-03-03T03:24:50.750Z,115.82
2019-03-03T03:27:23.759Z,111.05
2019-03-03T03:29:56.810Z,120.07
2019-03-03T03:32:26.925Z,105.17
2019-03-03T03:35:14.917Z,108.17
2019-03-03T03:37:45.089Z,106.63
2019-03-03T03:40:18.167Z,109.85
2019-03-03T03:43:00.115Z,114.40
2019-03-03T03:45:46.406Z,116.53
2019-03-03T03:48:19.254Z,115.03
2019-03-03T03:50:55.284Z,115.10
2019-03-03T03:53:25.483Z,113.50
2019-03-03T03:56:07.428Z,108.17
2019-03-03T03:58:40.502Z,118.30
2019-03-03T04:01:16.172Z,108.10
2019-03-03T04:03:46.306Z,118.57
2019-03-03T04:06:19.087Z,108.07
2019-03-03T04:08:55.208Z,128.55
2019-03-03T04:11:25.312Z,118.33
2019-03-03T04:14:11.543Z,114.47
2019-03-03T04:16:53.486Z,124.58
2019-03-03T04:19:23.636Z,116.77
2019-03-03T04:22:09.721Z,116.33
2019-03-03T04:24:48.569Z,119.28
2019-03-03T04:27:21.341Z,121.20
2019-03-03T04:29:54.264Z,118.30
2019-03-03T04:32:33.221Z,124.60
2019-03-03T04:35:03.353Z,112.72
2019-03-03T04:37:39.307Z,116.22
2019-03-03T04:40:15.456Z,116.28
2019-03-03T04:42:48.228Z,121.70
2019-03-03T04:45:27.315Z,125.60
2019-03-03T04:47:57.435Z,123.25
2019-03-03T04:50:27.568Z,121.47
2019-03-03T04:53:13.989Z,121.55
2019-03-03T04:55:49.780Z,127.78
2019-03-03T04:58:22.536Z,121.70
2019-03-03T05:00:52.797Z,116.57
2019-03-03T05:03:38.960Z,114.00
2019-03-03T05:06:20.775Z,125.20
2019-03-03T05:09:02.723Z,122.82
2019-03-03T05:12:13.530Z,113.70
2019-03-03T05:14:43.750Z,121.10
2019-03-03T05:17:29.870Z,116.22
2019-03-03T05:20:00.060Z,123.25
2019-03-03T05:22:28.578Z,117.70
2019-03-03T05:24:57.079Z,122.05
2019-03-03T05:27:25.747Z,117.30
2019-03-03T05:29:54.297Z,113.62
2019-03-03T05:32:22.879Z,109.25
2019-03-03T05:34:53.201Z,117.47
2019-03-03T05:37:23.822Z,121.85
2019-03-03T05:39:52.426Z,112.52
2019-03-03T05:42:20.974Z,114.35
2019-03-03T05:44:49.516Z,108.32
2019-03-03T05:47:17.995Z,111.20
2019-03-03T05:49:46.544Z,117.97
2019-03-03T05:52:15.016Z,114.82
2019-03-03T05:54:43.611Z,109.00
2019-03-03T05:57:12.164Z,119.33
2019-03-03T05:59:40.638Z,121.53
2019-03-03T06:02:10.683Z,116.35
2019-03-03T06:04:39.191Z,115.65
2019-03-03T06:07:07.693Z,105.05
2019-03-03T06:09:36.277Z,112.42
2019-03-03T06:12:04.854Z,107.78
2019-03-03T06:14:33.341Z,108.95
2019-03-03T06:17:01.849Z,106.67
2019-03-03T06:19:30.376Z,107.75
2019-03-03T06:21:58.875Z,97.70
2019-03-03T06:24:27.372Z,101.42
2019-03-03T06:26:55.856Z,100.90
2019-03-03T06:29:24.373Z,107.75
2019-03-03T06:31:52.857Z,109.52
2019-03-03T06:34:21.354Z,112.70
2019-03-03T06:36:49.853Z,104.20
2019-03-03T06:39:18.501Z,111.83
2019-03-03T06:41:47.045Z,108.10
2019-03-03T06:44:15.619Z,111.65
2019-03-03T06:46:44.091Z,107.22
2019-03-03T06:49:12.596Z,102.78
2019-03-03T06:51:41.179Z,107.55
2019-03-03T06:54:09.738Z,102.40
2019-03-03T06:56:38.206Z,99.77
2019-03-03T06:59:06.701Z,103.78
2019-03-03T07:01:35.215Z,112.20
2019-03-03T07:04:03.703Z,116.62
2019-03-03T07:06:32.213Z,113.85
2019-03-03T07:09:02.478Z,106.95
2019-03-03T07:11:32.596Z,100.53
2019-03-03T07:14:01.252Z,105.30
2019-03-03T07:16:31.987Z,104.25
2019-03-03T07:19:00.544Z,99.30
2019-03-03T07:21:29.026Z,97.97
2019-03-03T07:23:57.513Z,94.97
2019-03-03T07:26:26.019Z,102.58
2019-03-03T07:28:56.601Z,101.45
2019-03-03T07:31:24.753Z,97.42
2019-03-03T07:33:54.115Z,98.60
2019-03-03T07:36:22.602Z,105.25
2019-03-03T07:38:55.933Z,107.17
2019-03-03T07:41:24.505Z,110.83
2019-03-03T07:43:52.979Z,101.47
2019-03-03T07:46:21.477Z,91.90
2019-03-03T07:48:53.889Z,100.27
2019-03-03T07:51:22.502Z,101.80
2019-03-03T07:53:50.982Z,91.10
2019-03-03T07:56:22.676Z,100.97
2019-03-03T07:58:51.632Z,103.40
2019-03-03T08:01:20.179Z,96.82
2019-03-03T08:03:48.710Z,95.30
2019-03-03T08:06:17.200Z,89.05
2019-03-03T08:08:45.694Z,99.77
2019-03-03T08:11:14.248Z,95.87
2019-03-03T08:13:43.011Z,93.75
2019-03-03T08:16:11.527Z,100.02
2019-03-03T08:18:40.300Z,115.72
2019-03-03T08:21:08.887Z,112.15
2019-03-03T08:23:37.478Z,119.42
2019-03-03T08:26:06.202Z,112.88
2019-03-03T08:28:34.691Z,115.70
2019-03-03T08:31:03.240Z,114.20
2019-03-03T08:33:31.787Z,127.22
2019-03-03T08:36:00.265Z,126.40
2019-03-03T08:38:28.779Z,137.97
2019-03-03T08:40:57.264Z,131.97
2019-03-03T08:43:30.208Z,132.78
2019-03-03T08:46:15.204Z,140.80
2019-03-03T08:48:54.659Z,136.18
2019-03-03T08:51:24.783Z,131.87
2019-03-03T08:53:57.945Z,129.25
2019-03-03T08:56:30.779Z,124.60
2019-03-03T08:59:00.958Z,113.80
2019-03-03T09:01:39.701Z,124.87
2019-03-03T09:04:21.706Z,115.70
2019-03-03T09:06:52.099Z,105.12
2019-03-03T09:09:31.104Z,109.50
2019-03-03T09:12:10.265Z,102.90
2019-03-03T09:14:46.599Z,103.58
2019-03-03T09:17:19.720Z,100.92
2019-03-03T09:20:06.808Z,97.90
2019-03-03T09:22:52.507Z,96.42
2019-03-03T09:25:22.776Z,98.33
2019-03-03T09:27:59.152Z,101.75
2019-03-03T09:30:48.582Z,104.92
2019-03-03T09:33:28.019Z,100.95
2019-03-03T09:36:07.492Z,101.12
2019-03-03T09:38:43.516Z,103.15
2019-03-03T09:41:29.970Z,98.95
2019-03-03T09:44:05.760Z,103.83
2019-03-03T09:46:38.642Z,103.78
2019-03-03T09:49:17.676Z,96.17
2019-03-03T09:52:19.188Z,98.25
2019-03-03T09:54:53.109Z,92.85
2019-03-03T09:57:28.957Z,98.33
2019-03-03T10:00:05.058Z,92.40
2019-03-03T10:02:41.742Z,90.40
2019-03-03T10:05:28.518Z,100.12
2019-03-03T10:08:10.863Z,93.80
2019-03-03T10:10:44.243Z,99.83
2019-03-03T10:13:23.370Z,93.10
2019-03-03T10:15:59.182Z,104.63
2019-03-03T10:18:35.616Z,96.30
2019-03-03T10:21:11.878Z,105.95
2019-03-03T10:23:58.048Z,101.85
2019-03-03T10:26:37.201Z,106.27
2019-03-03T10:29:10.699Z,99.00
2019-03-03T10:31:57.513Z,106.07
2019-03-03T10:34:33.669Z,99.58
2019-03-03T10:37:19.850Z,99.97
2019-03-03T10:39:52.754Z,102.65
2019-03-03T10:42:23.081Z,105.20
2019-03-03T10:45:05.060Z,102.15
2019-03-03T10:47:35.404Z,102.02
2019-03-03T10:50:06.027Z,105.85
2019-03-03T10:52:42.216Z,104.85
2019-03-03T10:55:14.085Z,96.00
2019-03-03T10:57:54.495Z,111.00
2019-03-03T11:00:25.101Z,100.05
2019-03-03T11:02:58.038Z,102.22
2019-03-03T11:05:35.666Z,96.95
2019-03-03T11:08:05.915Z,104.97
2019-03-03T11:10:36.269Z,103.75
2019-03-03T11:13:33.721Z,100.18
2019-03-03T11:16:20.328Z,97.95
2019-03-03T11:18:56.300Z,94.07
2019-03-03T11:21:42.732Z,96.57
2019-03-03T11:24:12.956Z,97.97
2019-03-03T11:26:51.953Z,98.30
2019-03-03T11:29:22.307Z,104.87
2019-03-03T11:31:55.257Z,97.72
2019-03-03T11:34:32.584Z,97.05
2019-03-03T11:37:20.490Z,97.60
2019-03-03T11:39:59.716Z,103.38
2019-03-03T11:42:30.041Z,107.70
2019-03-03T11:45:03.027Z,100.92
2019-03-03T11:47:33.155Z,94.17
2019-03-03T11:50:05.944Z,95.45
2019-03-03T11:52:38.804Z,95.60
2019-03-03T11:55:11.119Z,99.60
2019-03-03T11:57:46.823Z,105.20
2019-03-03T12:00:17.131Z,98.58
2019-03-03T12:03:02.203Z,95.55
2019-03-03T12:05:48.368Z,100.02
2019-03-03T12:08:18.470Z,95.80
2019-03-03T12:10:51.428Z,95.90
2019-03-03T12:13:21.763Z,95.30
2019-03-03T12:16:03.868Z,95.83
2019-03-03T12:18:36.691Z,88.90
2019-03-03T12:21:07.010Z,87.22
2019-03-03T12:23:37.111Z,89.05
2019-03-03T12:26:16.112Z,92.82
2019-03-03T12:29:02.407Z,88.47
2019-03-03T12:31:44.452Z,96.20
2019-03-03T12:34:14.575Z,88.95
2019-03-03T12:36:50.603Z,95.67
2019-03-03T12:39:23.501Z,86.82
2019-03-03T12:41:53.647Z,81.17
2019-03-03T12:44:35.418Z,87.35
2019-03-03T12:47:05.584Z,84.90
2019-03-03T12:49:44.535Z,81.78
2019-03-03T12:52:17.438Z,88.78
2019-03-03T12:54:47.555Z,89.70
2019-03-03T12:57:23.707Z,89.30
2019-03-03T12:59:56.604Z,89.37
2019-03-03T13:02:26.745Z,93.92
2019-03-03T13:05:02.629Z,86.22
2019-03-03T13:07:38.489Z,88.15
2019-03-03T13:10:22.524Z,76.00
2019-03-03T13:13:08.816Z,76.35
2019-03-03T13:15:56.818Z,82.08
2019-03-03T13:18:42.948Z,82.70
2019-03-03T13:21:18.930Z,76.05
2019-03-03T13:23:49.093Z,76.07
2019-03-03T13:26:31.067Z,69.80
2019-03-03T13:29:06.977Z,69.10
2019-03-03T13:31:37.096Z,71.17
2019-03-03T13:34:13.105Z,77.08
2019-03-03T13:36:45.949Z,83.72
2019-03-03T13:39:21.817Z,71.67
2019-03-03T13:41:54.662Z,76.00
2019-03-03T13:44:23.229Z,69.77
2019-03-03T13:46:51.828Z,66.17
2019-03-03T13:49:20.316Z,71.35
2019-03-03T13:51:48.818Z,71.28
2019-03-03T13:54:17.465Z,73.75
2019-03-03T13:56:45.958Z,73.17
2019-03-03T13:59:17.291Z,73.40
2019-03-03T14:01:45.780Z,61.80
2019-03-03T14:04:14.290Z,59.00
2019-03-03T14:06:42.803Z,60.20
2019-03-03T14:09:11.307Z,59.13
2019-03-03T14:11:39.770Z,60.95
2019-03-03T14:14:08.273Z,54.90
2019-03-03T14:16:36.789Z,60.30
2019-03-03T14:19:05.322Z,63.05
2019-03-03T14:21:36.775Z,56.88
2019-03-03T14:24:05.483Z,52.35
2019-03-03T14:26:33.988Z,53.38
2019-03-03T14:29:02.498Z,51.18
2019-03-03T14:31:34.152Z,53.17
2019-03-03T14:34:02.650Z,50.05
2019-03-03T14:36:31.147Z,56.68
2019-03-03T14:38:59.623Z,52.55
2019-03-03T14:41:28.134Z,58.50
2019-03-03T14:43:56.615Z,48.05
2019-03-03T14:46:25.110Z,54.10
2019-03-03T14:48:53.607Z,56.92
2019-03-03T14:51:22.145Z,52.65
2019-03-03T14:53:50.685Z,52.40
2019-03-03T14:56:19.169Z,46.23
2019-03-03T14:58:47.666Z,47.85
2019-03-03T15:01:16.230Z,50.50
2019-03-03T15:03:46.421Z,48.28
2019-03-03T15:06:23.957Z,47.85
2019-03-03T15:08:45.055Z,48.55
2019-03-03T15:11:13.541Z,53.50
2019-03-03T15:13:42.054Z,49.70
2019-03-03T15:16:10.543Z,50.35
2019-03-03T15:18:39.040Z,51.10
2019-03-03T15:21:07.535Z,48.58
2019-03-03T15:23:36.076Z,48.25
2019-03-03T15:26:04.552Z,47.17
2019-03-03T15:28:33.095Z,46.95
2019-03-03T15:31:01.636Z,48.17
2019-03-03T15:33:30.113Z,55.12
2019-03-03T15:35:58.623Z,51.33
2019-03-03T15:38:27.113Z,49.93
2019-03-03T15:40:55.976Z,48.15
2019-03-03T15:43:24.536Z,50.73
2019-03-03T15:45:53.075Z,52.45
2019-03-03T15:48:21.562Z,51.23
2019-03-03T15:50:50.053Z,54.30
2019-03-03T15:53:18.551Z,50.05
2019-03-03T15:55:48.958Z,58.90
2019-03-03T15:58:17.169Z,54.05
2019-03-03T16:00:45.631Z,51.60
2019-03-03T16:03:14.149Z,57.17
2019-03-03T16:05:42.645Z,62.75
2019-03-03T16:08:11.305Z,61.83
2019-03-03T16:10:39.807Z,65.62
2019-03-03T16:13:08.298Z,65.20
2019-03-03T16:15:36.783Z,57.33
2019-03-03T16:18:05.482Z,65.15
2019-03-03T16:20:33.985Z,53.50
2019-03-03T16:23:05.453Z,59.35
2019-03-03T16:25:33.946Z,58.95
2019-03-03T16:28:04.053Z,59.67
2019-03-03T16:30:32.567Z,60.23
2019-03-03T16:33:01.057Z,55.83
2019-03-03T16:35:29.648Z,62.45
2019-03-03T16:37:58.116Z,68.83
2019-03-03T16:40:26.817Z,61.63
2019-03-03T16:42:55.293Z,62.98
2019-03-03T16:45:24.058Z,68.78
2019-03-03T16:47:52.549Z,60.52
2019-03-03T16:50:22.003Z,65.03
2019-03-03T16:52:50.492Z,72.30
2019-03-03T16:55:19.918Z,69.87
2019-03-03T16:57:48.515Z,65.97
2019-03-03T17:00:22.219Z,71.02
2019-03-03T17:02:51.760Z,77.12
2019-03-03T17:05:27.502Z,77.90
2019-03-03T17:07:56.019Z,78.05
2019-03-03T17:10:24.539Z,79.17
2019-03-03T17:12:53.059Z,68.02
2019-03-03T17:15:23.943Z,73.90
2019-03-03T17:17:52.421Z,87.92
2019-03-03T17:20:20.926Z,81.05
2019-03-03T17:22:49.440Z,78.87
2019-03-03T17:25:22.434Z,73.80
2019-03-03T17:27:50.926Z,80.27
2019-03-03T17:30:21.169Z,79.82
2019-03-03T17:32:49.660Z,89.13
2019-03-03T17:35:18.184Z,110.30
2019-03-03T17:37:46.674Z,104.60
2019-03-03T17:40:20.581Z,77.92
2019-03-03T17:45:19.572Z,78.97
2019-03-03T17:47:48.067Z,82.97
2019-03-03T17:50:18.234Z,78.37
2019-03-03T17:52:46.710Z,91.17
2019-03-03T17:55:16.525Z,86.78
2019-03-03T17:57:45.192Z,79.67
2019-03-03T18:00:19.457Z,74.85
2019-03-03T18:02:47.935Z,86.42
2019-03-03T18:05:17.696Z,76.62
2019-03-03T18:07:46.247Z,79.72
2019-03-03T18:10:14.786Z,87.12
2019-03-03T18:12:43.324Z,78.05
2019-03-03T18:15:14.003Z,82.05
2019-03-03T18:17:42.583Z,91.85
2019-03-03T18:20:13.323Z,94.92
2019-03-03T18:22:43.371Z,92.35
2019-03-03T18:25:14.271Z,92.30
2019-03-03T18:27:42.969Z,88.07
2019-03-03T18:30:14.578Z,92.62
2019-03-03T18:32:43.081Z,93.05
2019-03-03T18:35:13.076Z,105.15
2019-03-03T18:37:46.896Z,98.95
2019-03-03T18:40:17.410Z,96.60
2019-03-03T18:42:46.570Z,94.72
2019-03-03T18:45:22.490Z,91.35
2019-03-03T18:47:51.049Z,87.45
2019-03-03T18:50:21.951Z,98.70
2019-03-03T18:52:50.451Z,92.25
2019-03-03T18:55:18.999Z,90.00
2019-03-03T18:57:47.456Z,86.87
2019-03-03T19:00:32.037Z,85.10
2019-03-03T19:03:00.700Z,101.80
2019-03-03T19:05:29.271Z,82.22
2019-03-03T19:07:57.799Z,83.45
2019-03-03T19:10:28.689Z,86.17
2019-03-03T19:12:57.207Z,74.47
2019-03-03T19:15:25.690Z,81.57
2019-03-03T19:17:54.197Z,76.65
2019-03-03T19:20:22.851Z,79.85
2019-03-03T19:22:51.494Z,81.22
2019-03-03T19:25:20.039Z,86.37
2019-03-03T19:27:49.066Z,83.67
2019-03-03T19:30:20.107Z,80.30
2019-03-03T19:33:00.409Z,68.67
2019-03-03T19:35:31.032Z,73.35
2019-03-03T19:37:59.510Z,74.67
2019-03-03T19:40:28.031Z,78.55
2019-03-03T19:42:56.532Z,74.55
2019-03-03T19:45:33.078Z,75.83
2019-03-03T19:48:01.609Z,78.70
2019-03-03T19:50:30.299Z,75.55
2019-03-03T19:52:58.891Z,71.65
2019-03-03T19:55:27.504Z,80.50
2019-03-03T19:57:55.993Z,76.10
2019-03-03T20:00:35.025Z,73.65
2019-03-03T20:02:58.222Z,79.27
2019-03-03T20:05:26.691Z,79.30
2019-03-03T20:07:55.288Z,75.00
2019-03-03T20:10:25.540Z,73.07
2019-03-03T20:12:54.126Z,80.87
2019-03-03T20:15:23.028Z,75.28
2019-03-03T20:17:51.645Z,70.47
2019-03-03T20:20:21.244Z,89.58
2019-03-03T20:22:50.193Z,80.30
2019-03-03T20:25:18.779Z,85.28
2019-03-03T20:27:47.403Z,86.47
2019-03-03T20:30:25.702Z,78.02
2019-03-03T20:32:54.293Z,86.90
2019-03-03T20:35:22.962Z,76.45
2019-03-03T20:37:51.816Z,76.85
2019-03-03T20:40:25.573Z,83.95
2019-03-03T20:42:55.949Z,78.12
2019-03-03T20:45:29.468Z,79.53
2019-03-03T20:47:58.054Z,80.07
2019-03-03T20:50:26.844Z,71.85
2019-03-03T20:52:55.402Z,76.55
2019-03-03T20:55:28.633Z,82.05
2019-03-03T20:57:59.755Z,81.22
2019-03-03T21:00:30.530Z,77.70
2019-03-03T21:02:59.272Z,74.47
2019-03-03T21:05:27.818Z,80.80
2019-03-03T21:07:56.479Z,82.45
2019-03-03T21:10:31.110Z,80.87
2019-03-03T21:12:59.792Z,78.60
2019-03-03T21:15:28.319Z,80.80
2019-03-03T21:17:56.834Z,79.95
2019-03-03T21:20:25.322Z,79.47
2019-03-03T21:22:53.830Z,78.35
2019-03-03T21:25:22.429Z,73.80
2019-03-03T21:27:50.995Z,69.50
2019-03-03T21:30:23.849Z,83.22
2019-03-03T21:32:52.376Z,91.32
2019-03-03T21:35:20.909Z,95.10
2019-03-03T21:37:49.384Z,87.53
2019-03-03T21:40:24.605Z,86.30
2019-03-03T21:42:53.094Z,103.05
2019-03-03T21:45:29.587Z,111.45
2019-03-03T21:47:58.068Z,104.78
2019-03-03T21:50:30.026Z,115.20
2019-03-03T21:52:58.521Z,95.77
2019-03-03T21:55:27.002Z,109.05
2019-03-03T21:57:55.596Z,108.25
2019-03-03T22:00:40.722Z,99.10
2019-03-03T22:03:09.296Z,99.47
2019-03-03T22:05:37.791Z,107.30
2019-03-03T22:08:06.333Z,97.37
2019-03-03T22:10:34.889Z,101.47
2019-03-03T22:13:08.774Z,105.27
2019-03-03T22:15:37.286Z,94.72
2019-03-03T22:18:05.841Z,96.57
2019-03-03T22:20:34.369Z,104.30
2019-03-03T22:23:02.848Z,97.10
2019-03-03T22:25:31.369Z,106.95
2019-03-03T22:27:59.871Z,100.25
2019-03-03T22:30:28.426Z,91.00
2019-03-03T22:32:56.918Z,98.35
2019-03-03T22:35:25.458Z,90.53
2019-03-03T22:37:54.095Z,82.97
2019-03-03T22:40:23.712Z,86.20
2019-03-03T22:42:52.253Z,91.15
2019-03-03T22:45:20.731Z,91.92
2019-03-03T22:47:49.235Z,87.45
2019-03-03T22:50:18.774Z,90.03
2019-03-03T22:52:47.413Z,87.35
2019-03-03T22:55:18.229Z,92.25
2019-03-03T22:57:46.724Z,92.47
2019-03-03T23:00:43.511Z,86.25
2019-03-03T23:03:14.395Z,93.05
2019-03-03T23:06:00.741Z,89.28
2019-03-03T23:08:32.645Z,92.75
2019-03-03T23:11:07.323Z,85.25
2019-03-03T23:13:39.254Z,92.57
2019-03-03T23:16:28.879Z,100.33
2019-03-03T23:19:00.694Z,90.72
2019-03-03T23:21:41.546Z,93.65
2019-03-03T23:24:41.808Z,91.02
2019-03-03T23:27:10.329Z,89.90
2019-03-03T23:29:38.876Z,89.32
2019-03-03T23:32:07.433Z,87.78
2019-03-03T23:34:35.973Z,92.17
2019-03-03T23:37:04.531Z,85.22
2019-03-03T23:39:33.097Z,89.13
2019-03-03T23:42:01.574Z,78.28
2019-03-03T23:44:30.057Z,88.80
2019-03-03T23:46:58.539Z,80.22
2019-03-03T23:49:27.386Z,81.57
2019-03-03T23:51:55.945Z,77.55
2019-03-03T23:54:24.434Z,83.05
2019-03-03T23:56:52.911Z,86.63
2019-03-03T23:59:21.431Z,93.27
